sensor_id;sensor_type;location;lat;lon;timestamp;P1;durP1;ratioP1;P2;durP2;ratioP2
75620;SDS011;64574;48.506;-2.750;2023-05-21T00:00:18;7.03;;;2.90;;
75620;SDS011;64574;48.506;-2.750;2023-05-21T00:02:44;8.18;;;2.60;;
75620;SDS011;64574;48.506;-2.750;2023-05-21T00:05:11;4.68;;;2.38;;
75620;SDS011;64574;48.506;-2.750;2023-05-21T00:07:39;12.73;;;2.92;;
75620;SDS011;64574;48.506;-2.750;2023-05-21T00:10:05;5.30;;;2.35;;
75620;SDS011;64574;48.506;-2.750;2023-05-21T00:12:31;9.50;;;2.60;;
75620;SDS011;64574;48.506;-2.750;2023-05-21T00:14:57;5.85;;;2.47;;
75620;SDS011;64574;48.506;-2.750;2023-05-21T00:17:23;5.72;;;2.40;;
75620;SDS011;64574;48.506;-2.750;2023-05-21T00:19:50;7.07;;;3.03;;
75620;SDS011;64574;48.506;-2.750;2023-05-21T00:22:16;7.05;;;2.55;;
75620;SDS011;64574;48.506;-2.750;2023-05-21T00:24:42;7.60;;;2.85;;
75620;SDS011;64574;48.506;-2.750;2023-05-21T00:27:10;7.60;;;2.45;;
75620;SDS011;64574;48.506;-2.750;2023-05-21T00:29:36;5.75;;;2.47;;
75620;SDS011;64574;48.506;-2.750;2023-05-21T00:32:02;5.53;;;2.17;;
75620;SDS011;64574;48.506;-2.750;2023-05-21T00:34:27;6.95;;;2.30;;
75620;SDS011;64574;48.506;-2.750;2023-05-21T00:36:53;5.32;;;2.30;;
75620;SDS011;64574;48.506;-2.750;2023-05-21T00:39:19;7.60;;;2.20;;
75620;SDS011;64574;48.506;-2.750;2023-05-21T00:41:46;5.97;;;1.92;;
75620;SDS011;64574;48.506;-2.750;2023-05-21T00:44:12;7.70;;;2.55;;
75620;SDS011;64574;48.506;-2.750;2023-05-21T00:46:40;5.22;;;2.45;;
75620;SDS011;64574;48.506;-2.750;2023-05-21T00:49:08;7.93;;;2.55;;
75620;SDS011;64574;48.506;-2.750;2023-05-21T00:51:34;6.85;;;2.22;;
75620;SDS011;64574;48.506;-2.750;2023-05-21T00:54:00;5.63;;;2.05;;
75620;SDS011;64574;48.506;-2.750;2023-05-21T00:56:26;4.57;;;2.20;;
75620;SDS011;64574;48.506;-2.750;2023-05-21T00:58:54;6.70;;;2.30;;
75620;SDS011;64574;48.506;-2.750;2023-05-21T01:01:23;7.82;;;2.20;;
75620;SDS011;64574;48.506;-2.750;2023-05-21T01:03:57;8.55;;;2.47;;
75620;SDS011;64574;48.506;-2.750;2023-05-21T01:06:25;6.65;;;2.17;;
75620;SDS011;64574;48.506;-2.750;2023-05-21T01:08:52;6.97;;;2.10;;
75620;SDS011;64574;48.506;-2.750;2023-05-21T01:11:20;5.35;;;2.20;;
75620;SDS011;64574;48.506;-2.750;2023-05-21T01:13:50;5.80;;;2.28;;
75620;SDS011;64574;48.506;-2.750;2023-05-21T01:16:16;5.95;;;2.10;;
75620;SDS011;64574;48.506;-2.750;2023-05-21T01:18:42;5.53;;;2.00;;
75620;SDS011;64574;48.506;-2.750;2023-05-21T01:21:09;6.40;;;2.30;;
75620;SDS011;64574;48.506;-2.750;2023-05-21T01:23:34;4.80;;;2.22;;
75620;SDS011;64574;48.506;-2.750;2023-05-21T01:26:00;6.47;;;2.05;;
75620;SDS011;64574;48.506;-2.750;2023-05-21T01:28:26;5.20;;;2.50;;
75620;SDS011;64574;48.506;-2.750;2023-05-21T01:30:51;5.93;;;2.20;;
75620;SDS011;64574;48.506;-2.750;2023-05-21T01:33:21;7.63;;;2.20;;
75620;SDS011;64574;48.506;-2.750;2023-05-21T01:35:57;5.80;;;2.47;;
75620;SDS011;64574;48.506;-2.750;2023-05-21T01:38:33;7.53;;;2.45;;
75620;SDS011;64574;48.506;-2.750;2023-05-21T01:41:11;6.53;;;2.55;;
75620;SDS011;64574;48.506;-2.750;2023-05-21T01:43:40;7.90;;;2.05;;
75620;SDS011;64574;48.506;-2.750;2023-05-21T01:46:08;7.70;;;2.90;;
75620;SDS011;64574;48.506;-2.750;2023-05-21T01:48:36;5.10;;;2.17;;
75620;SDS011;64574;48.506;-2.750;2023-05-21T01:51:03;10.85;;;2.72;;
75620;SDS011;64574;48.506;-2.750;2023-05-21T01:53:30;7.00;;;2.30;;
75620;SDS011;64574;48.506;-2.750;2023-05-21T01:55:56;7.97;;;2.38;;
75620;SDS011;64574;48.506;-2.750;2023-05-21T01:58:21;9.15;;;2.67;;
75620;SDS011;64574;48.506;-2.750;2023-05-21T02:00:48;7.13;;;3.20;;
75620;SDS011;64574;48.506;-2.750;2023-05-21T02:03:17;8.73;;;2.58;;
75620;SDS011;64574;48.506;-2.750;2023-05-21T02:05:44;7.80;;;2.72;;
75620;SDS011;64574;48.506;-2.750;2023-05-21T02:08:10;4.10;;;2.35;;
75620;SDS011;64574;48.506;-2.750;2023-05-21T02:10:36;12.13;;;2.70;;
75620;SDS011;64574;48.506;-2.750;2023-05-21T02:13:02;5.22;;;2.60;;
75620;SDS011;64574;48.506;-2.750;2023-05-21T02:15:28;5.75;;;2.40;;
75620;SDS011;64574;48.506;-2.750;2023-05-21T02:17:54;5.15;;;2.28;;
75620;SDS011;64574;48.506;-2.750;2023-05-21T02:20:20;6.80;;;2.40;;
75620;SDS011;64574;48.506;-2.750;2023-05-21T02:22:47;4.60;;;2.45;;
75620;SDS011;64574;48.506;-2.750;2023-05-21T02:25:13;5.40;;;2.10;;
75620;SDS011;64574;48.506;-2.750;2023-05-21T02:27:41;9.35;;;2.35;;
75620;SDS011;64574;48.506;-2.750;2023-05-21T02:30:08;5.75;;;2.80;;
75620;SDS011;64574;48.506;-2.750;2023-05-21T02:32:35;7.43;;;2.63;;
75620;SDS011;64574;48.506;-2.750;2023-05-21T02:35:01;5.72;;;2.30;;
75620;SDS011;64574;48.506;-2.750;2023-05-21T02:37:28;7.50;;;2.50;;
75620;SDS011;64574;48.506;-2.750;2023-05-21T02:39:58;6.80;;;2.95;;
75620;SDS011;64574;48.506;-2.750;2023-05-21T02:42:24;5.18;;;2.13;;
75620;SDS011;64574;48.506;-2.750;2023-05-21T02:44:50;6.45;;;2.50;;
75620;SDS011;64574;48.506;-2.750;2023-05-21T02:47:17;8.50;;;2.53;;
75620;SDS011;64574;48.506;-2.750;2023-05-21T02:49:43;5.82;;;2.28;;
75620;SDS011;64574;48.506;-2.750;2023-05-21T02:52:09;4.28;;;1.90;;
75620;SDS011;64574;48.506;-2.750;2023-05-21T02:54:35;7.00;;;2.08;;
75620;SDS011;64574;48.506;-2.750;2023-05-21T02:57:01;6.32;;;2.10;;
75620;SDS011;64574;48.506;-2.750;2023-05-21T02:59:26;7.35;;;2.63;;
75620;SDS011;64574;48.506;-2.750;2023-05-21T03:01:52;5.28;;;2.03;;
75620;SDS011;64574;48.506;-2.750;2023-05-21T03:04:18;3.25;;;1.98;;
75620;SDS011;64574;48.506;-2.750;2023-05-21T03:06:47;5.88;;;2.40;;
75620;SDS011;64574;48.506;-2.750;2023-05-21T03:09:15;2.95;;;1.55;;
75620;SDS011;64574;48.506;-2.750;2023-05-21T03:11:41;5.50;;;2.00;;
75620;SDS011;64574;48.506;-2.750;2023-05-21T03:14:07;5.03;;;1.88;;
75620;SDS011;64574;48.506;-2.750;2023-05-21T03:16:33;7.75;;;2.30;;
75620;SDS011;64574;48.506;-2.750;2023-05-21T03:19:00;5.38;;;2.20;;
75620;SDS011;64574;48.506;-2.750;2023-05-21T03:21:25;8.43;;;2.47;;
75620;SDS011;64574;48.506;-2.750;2023-05-21T03:23:54;4.78;;;1.88;;
75620;SDS011;64574;48.506;-2.750;2023-05-21T03:26:22;3.65;;;1.90;;
75620;SDS011;64574;48.506;-2.750;2023-05-21T03:28:51;5.35;;;1.75;;
75620;SDS011;64574;48.506;-2.750;2023-05-21T03:31:17;4.10;;;1.45;;
75620;SDS011;64574;48.506;-2.750;2023-05-21T03:33:43;4.05;;;1.50;;
75620;SDS011;64574;48.506;-2.750;2023-05-21T03:36:08;6.18;;;1.60;;
75620;SDS011;64574;48.506;-2.750;2023-05-21T03:38:34;3.47;;;1.40;;
75620;SDS011;64574;48.506;-2.750;2023-05-21T03:41:00;4.28;;;1.40;;
75620;SDS011;64574;48.506;-2.750;2023-05-21T03:43:25;5.90;;;1.63;;
75620;SDS011;64574;48.506;-2.750;2023-05-21T03:45:52;3.75;;;1.52;;
75620;SDS011;64574;48.506;-2.750;2023-05-21T03:50:44;2.20;;;0.95;;
75620;SDS011;64574;48.506;-2.750;2023-05-21T03:53:09;2.88;;;1.02;;
75620;SDS011;64574;48.506;-2.750;2023-05-21T03:55:36;4.85;;;1.35;;
75620;SDS011;64574;48.506;-2.750;2023-05-21T03:58:02;5.28;;;1.08;;
75620;SDS011;64574;48.506;-2.750;2023-05-21T04:00:27;3.25;;;0.98;;
75620;SDS011;64574;48.506;-2.750;2023-05-21T04:02:53;3.72;;;1.27;;
75620;SDS011;64574;48.506;-2.750;2023-05-21T04:05:18;3.72;;;1.17;;
75620;SDS011;64574;48.506;-2.750;2023-05-21T04:07:44;3.10;;;0.98;;
75620;SDS011;64574;48.506;-2.750;2023-05-21T04:10:13;2.47;;;0.80;;
75620;SDS011;64574;48.506;-2.750;2023-05-21T04:12:39;3.75;;;0.98;;
75620;SDS011;64574;48.506;-2.750;2023-05-21T04:15:05;6.03;;;1.23;;
75620;SDS011;64574;48.506;-2.750;2023-05-21T04:17:31;3.22;;;1.10;;
75620;SDS011;64574;48.506;-2.750;2023-05-21T04:19:58;6.03;;;0.93;;
75620;SDS011;64574;48.506;-2.750;2023-05-21T04:22:24;4.22;;;1.00;;
75620;SDS011;64574;48.506;-2.750;2023-05-21T04:24:51;3.92;;;1.10;;
75620;SDS011;64574;48.506;-2.750;2023-05-21T04:27:19;2.97;;;1.20;;
75620;SDS011;64574;48.506;-2.750;2023-05-21T04:29:47;6.10;;;1.20;;
75620;SDS011;64574;48.506;-2.750;2023-05-21T04:32:14;2.92;;;1.20;;
75620;SDS011;64574;48.506;-2.750;2023-05-21T04:34:42;6.00;;;1.35;;
75620;SDS011;64574;48.506;-2.750;2023-05-21T04:37:08;6.03;;;1.23;;
75620;SDS011;64574;48.506;-2.750;2023-05-21T04:39:34;3.33;;;1.13;;
75620;SDS011;64574;48.506;-2.750;2023-05-21T04:42:00;4.45;;;1.15;;
75620;SDS011;64574;48.506;-2.750;2023-05-21T04:44:27;9.27;;;1.63;;
75620;SDS011;64574;48.506;-2.750;2023-05-21T04:46:53;4.38;;;1.33;;
75620;SDS011;64574;48.506;-2.750;2023-05-21T04:49:19;7.07;;;1.40;;
75620;SDS011;64574;48.506;-2.750;2023-05-21T04:51:45;2.78;;;0.93;;
75620;SDS011;64574;48.506;-2.750;2023-05-21T04:54:11;4.03;;;1.10;;
75620;SDS011;64574;48.506;-2.750;2023-05-21T04:56:36;3.22;;;1.10;;
75620;SDS011;64574;48.506;-2.750;2023-05-21T04:59:02;4.80;;;1.45;;
75620;SDS011;64574;48.506;-2.750;2023-05-21T05:01:28;1.95;;;0.80;;
75620;SDS011;64574;48.506;-2.750;2023-05-21T05:03:56;5.75;;;1.00;;
75620;SDS011;64574;48.506;-2.750;2023-05-21T05:06:21;6.85;;;1.17;;
75620;SDS011;64574;48.506;-2.750;2023-05-21T05:08:49;4.68;;;1.17;;
75620;SDS011;64574;48.506;-2.750;2023-05-21T05:11:15;3.47;;;1.20;;
75620;SDS011;64574;48.506;-2.750;2023-05-21T05:13:41;4.30;;;1.08;;
75620;SDS011;64574;48.506;-2.750;2023-05-21T05:16:06;2.95;;;1.20;;
75620;SDS011;64574;48.506;-2.750;2023-05-21T05:18:32;5.10;;;1.40;;
75620;SDS011;64574;48.506;-2.750;2023-05-21T05:20:59;2.88;;;1.08;;
75620;SDS011;64574;48.506;-2.750;2023-05-21T05:23:25;5.65;;;1.35;;
75620;SDS011;64574;48.506;-2.750;2023-05-21T05:25:50;3.42;;;1.02;;
75620;SDS011;64574;48.506;-2.750;2023-05-21T05:28:16;4.63;;;1.30;;
75620;SDS011;64574;48.506;-2.750;2023-05-21T05:30:42;3.50;;;1.08;;
75620;SDS011;64574;48.506;-2.750;2023-05-21T05:33:08;5.63;;;1.58;;
75620;SDS011;64574;48.506;-2.750;2023-05-21T05:35:33;4.65;;;1.30;;
75620;SDS011;64574;48.506;-2.750;2023-05-21T05:37:59;4.20;;;1.25;;
75620;SDS011;64574;48.506;-2.750;2023-05-21T05:40:25;4.13;;;1.30;;
75620;SDS011;64574;48.506;-2.750;2023-05-21T05:42:50;4.68;;;1.60;;
75620;SDS011;64574;48.506;-2.750;2023-05-21T05:45:17;2.83;;;1.05;;
75620;SDS011;64574;48.506;-2.750;2023-05-21T05:47:43;5.30;;;1.23;;
75620;SDS011;64574;48.506;-2.750;2023-05-21T05:50:09;4.22;;;1.20;;
75620;SDS011;64574;48.506;-2.750;2023-05-21T05:52:35;3.20;;;1.15;;
75620;SDS011;64574;48.506;-2.750;2023-05-21T05:55:01;7.53;;;1.63;;
75620;SDS011;64574;48.506;-2.750;2023-05-21T05:57:27;6.95;;;1.38;;
75620;SDS011;64574;48.506;-2.750;2023-05-21T05:59:52;2.75;;;1.30;;
75620;SDS011;64574;48.506;-2.750;2023-05-21T06:02:18;5.63;;;1.48;;
75620;SDS011;64574;48.506;-2.750;2023-05-21T06:04:43;4.85;;;1.30;;
75620;SDS011;64574;48.506;-2.750;2023-05-21T06:07:09;6.82;;;1.70;;
75620;SDS011;64574;48.506;-2.750;2023-05-21T06:09:35;3.85;;;1.27;;
75620;SDS011;64574;48.506;-2.750;2023-05-21T06:12:02;6.70;;;1.60;;
75620;SDS011;64574;48.506;-2.750;2023-05-21T06:14:31;4.63;;;1.30;;
75620;SDS011;64574;48.506;-2.750;2023-05-21T06:16:56;3.67;;;1.08;;
75620;SDS011;64574;48.506;-2.750;2023-05-21T06:19:22;3.55;;;1.25;;
75620;SDS011;64574;48.506;-2.750;2023-05-21T06:21:48;4.75;;;1.30;;
75620;SDS011;64574;48.506;-2.750;2023-05-21T06:24:14;7.22;;;1.48;;
75620;SDS011;64574;48.506;-2.750;2023-05-21T06:26:39;5.28;;;1.52;;
75620;SDS011;64574;48.506;-2.750;2023-05-21T06:29:05;5.32;;;1.38;;
75620;SDS011;64574;48.506;-2.750;2023-05-21T06:31:31;4.40;;;1.23;;
75620;SDS011;64574;48.506;-2.750;2023-05-21T06:33:57;7.70;;;1.77;;
75620;SDS011;64574;48.506;-2.750;2023-05-21T06:36:24;6.50;;;1.40;;
75620;SDS011;64574;48.506;-2.750;2023-05-21T06:38:53;4.85;;;1.27;;
75620;SDS011;64574;48.506;-2.750;2023-05-21T06:41:19;3.10;;;1.40;;
75620;SDS011;64574;48.506;-2.750;2023-05-21T06:43:45;5.50;;;1.52;;
75620;SDS011;64574;48.506;-2.750;2023-05-21T06:46:11;4.93;;;1.40;;
75620;SDS011;64574;48.506;-2.750;2023-05-21T06:48:36;8.68;;;1.60;;
75620;SDS011;64574;48.506;-2.750;2023-05-21T06:51:02;5.65;;;1.80;;
75620;SDS011;64574;48.506;-2.750;2023-05-21T06:53:27;8.60;;;1.40;;
75620;SDS011;64574;48.506;-2.750;2023-05-21T06:55:53;6.30;;;1.60;;
75620;SDS011;64574;48.506;-2.750;2023-05-21T06:58:19;12.23;;;1.70;;
75620;SDS011;64574;48.506;-2.750;2023-05-21T07:00:45;9.18;;;1.50;;
75620;SDS011;64574;48.506;-2.750;2023-05-21T07:03:11;4.40;;;1.35;;
75620;SDS011;64574;48.506;-2.750;2023-05-21T07:05:37;6.53;;;1.83;;
75620;SDS011;64574;48.506;-2.750;2023-05-21T07:08:03;7.63;;;1.77;;
75620;SDS011;64574;48.506;-2.750;2023-05-21T07:10:28;6.70;;;1.60;;
75620;SDS011;64574;48.506;-2.750;2023-05-21T07:12:54;7.90;;;1.38;;
75620;SDS011;64574;48.506;-2.750;2023-05-21T07:15:19;5.72;;;1.30;;
75620;SDS011;64574;48.506;-2.750;2023-05-21T07:17:45;3.78;;;1.40;;
75620;SDS011;64574;48.506;-2.750;2023-05-21T07:20:11;7.45;;;1.50;;
75620;SDS011;64574;48.506;-2.750;2023-05-21T07:22:37;5.82;;;1.58;;
75620;SDS011;64574;48.506;-2.750;2023-05-21T07:25:04;6.40;;;1.75;;
75620;SDS011;64574;48.506;-2.750;2023-05-21T07:27:30;8.52;;;1.40;;
75620;SDS011;64574;48.506;-2.750;2023-05-21T07:29:56;7.35;;;1.77;;
75620;SDS011;64574;48.506;-2.750;2023-05-21T07:32:21;5.88;;;1.30;;
75620;SDS011;64574;48.506;-2.750;2023-05-21T07:34:47;5.72;;;1.40;;
75620;SDS011;64574;48.506;-2.750;2023-05-21T07:37:12;8.43;;;1.95;;
75620;SDS011;64574;48.506;-2.750;2023-05-21T07:39:38;4.22;;;1.45;;
75620;SDS011;64574;48.506;-2.750;2023-05-21T07:42:04;5.30;;;1.70;;
75620;SDS011;64574;48.506;-2.750;2023-05-21T07:44:30;6.35;;;1.90;;
75620;SDS011;64574;48.506;-2.750;2023-05-21T07:46:56;4.20;;;1.63;;
75620;SDS011;64574;48.506;-2.750;2023-05-21T07:49:22;5.47;;;1.70;;
75620;SDS011;64574;48.506;-2.750;2023-05-21T07:51:47;4.53;;;1.77;;
75620;SDS011;64574;48.506;-2.750;2023-05-21T07:54:13;9.10;;;2.10;;
75620;SDS011;64574;48.506;-2.750;2023-05-21T07:56:39;8.43;;;1.95;;
75620;SDS011;64574;48.506;-2.750;2023-05-21T07:59:05;6.53;;;1.77;;
75620;SDS011;64574;48.506;-2.750;2023-05-21T08:01:30;5.22;;;1.70;;
75620;SDS011;64574;48.506;-2.750;2023-05-21T08:03:57;3.83;;;1.52;;
75620;SDS011;64574;48.506;-2.750;2023-05-21T08:06:25;5.75;;;1.80;;
75620;SDS011;64574;48.506;-2.750;2023-05-21T08:08:52;9.13;;;1.83;;
75620;SDS011;64574;48.506;-2.750;2023-05-21T08:11:18;5.93;;;2.00;;
75620;SDS011;64574;48.506;-2.750;2023-05-21T08:13:44;5.68;;;1.60;;
75620;SDS011;64574;48.506;-2.750;2023-05-21T08:16:09;10.23;;;2.00;;
75620;SDS011;64574;48.506;-2.750;2023-05-21T08:18:35;4.93;;;1.60;;
75620;SDS011;64574;48.506;-2.750;2023-05-21T08:21:01;7.47;;;2.10;;
75620;SDS011;64574;48.506;-2.750;2023-05-21T08:23:26;9.80;;;2.20;;
75620;SDS011;64574;48.506;-2.750;2023-05-21T08:25:52;7.43;;;1.83;;
75620;SDS011;64574;48.506;-2.750;2023-05-21T08:28:17;7.47;;;2.10;;
75620;SDS011;64574;48.506;-2.750;2023-05-21T08:30:43;8.18;;;2.22;;
75620;SDS011;64574;48.506;-2.750;2023-05-21T08:33:09;7.43;;;1.95;;
75620;SDS011;64574;48.506;-2.750;2023-05-21T08:35:34;9.68;;;2.30;;
75620;SDS011;64574;48.506;-2.750;2023-05-21T08:38:00;14.52;;;2.50;;
75620;SDS011;64574;48.506;-2.750;2023-05-21T08:40:26;6.78;;;1.77;;
75620;SDS011;64574;48.506;-2.750;2023-05-21T08:42:51;9.52;;;3.05;;
75620;SDS011;64574;48.506;-2.750;2023-05-21T08:45:21;6.15;;;1.50;;
75620;SDS011;64574;48.506;-2.750;2023-05-21T08:47:48;11.05;;;1.98;;
75620;SDS011;64574;48.506;-2.750;2023-05-21T08:50:23;9.25;;;1.92;;
75620;SDS011;64574;48.506;-2.750;2023-05-21T08:52:51;11.80;;;2.28;;
75620;SDS011;64574;48.506;-2.750;2023-05-21T08:55:17;8.23;;;2.13;;
75620;SDS011;64574;48.506;-2.750;2023-05-21T08:57:43;7.15;;;2.13;;
75620;SDS011;64574;48.506;-2.750;2023-05-21T09:00:09;12.13;;;2.47;;
75620;SDS011;64574;48.506;-2.750;2023-05-21T09:02:36;12.30;;;2.17;;
75620;SDS011;64574;48.506;-2.750;2023-05-21T09:05:04;7.93;;;2.20;;
75620;SDS011;64574;48.506;-2.750;2023-05-21T09:07:33;6.20;;;2.45;;
75620;SDS011;64574;48.506;-2.750;2023-05-21T09:10:07;7.07;;;2.28;;
75620;SDS011;64574;48.506;-2.750;2023-05-21T09:12:37;11.15;;;2.35;;
75620;SDS011;64574;48.506;-2.750;2023-05-21T09:15:02;7.40;;;2.47;;
75620;SDS011;64574;48.506;-2.750;2023-05-21T09:17:29;5.97;;;2.20;;
75620;SDS011;64574;48.506;-2.750;2023-05-21T09:22:39;8.63;;;3.00;;
75620;SDS011;64574;48.506;-2.750;2023-05-21T09:25:09;11.43;;;2.92;;
75620;SDS011;64574;48.506;-2.750;2023-05-21T09:27:35;9.50;;;2.50;;
75620;SDS011;64574;48.506;-2.750;2023-05-21T09:30:02;6.05;;;2.70;;
75620;SDS011;64574;48.506;-2.750;2023-05-21T09:32:28;5.85;;;2.33;;
75620;SDS011;64574;48.506;-2.750;2023-05-21T09:34:54;6.05;;;2.33;;
75620;SDS011;64574;48.506;-2.750;2023-05-21T09:37:20;8.98;;;2.28;;
75620;SDS011;64574;48.506;-2.750;2023-05-21T09:39:46;6.57;;;2.55;;
75620;SDS011;64574;48.506;-2.750;2023-05-21T09:42:12;12.90;;;3.50;;
75620;SDS011;64574;48.506;-2.750;2023-05-21T09:44:39;6.35;;;2.50;;
75620;SDS011;64574;48.506;-2.750;2023-05-21T09:47:07;10.38;;;3.10;;
75620;SDS011;64574;48.506;-2.750;2023-05-21T09:49:36;10.23;;;3.92;;
75620;SDS011;64574;48.506;-2.750;2023-05-21T09:52:02;11.63;;;4.03;;
75620;SDS011;64574;48.506;-2.750;2023-05-21T09:54:31;14.02;;;4.43;;
75620;SDS011;64574;48.506;-2.750;2023-05-21T09:57:01;8.55;;;3.90;;
75620;SDS011;64574;48.506;-2.750;2023-05-21T09:59:37;10.30;;;3.67;;
75620;SDS011;64574;48.506;-2.750;2023-05-21T10:02:08;11.75;;;4.45;;
75620;SDS011;64574;48.506;-2.750;2023-05-21T10:04:44;10.20;;;3.95;;
75620;SDS011;64574;48.506;-2.750;2023-05-21T10:07:20;11.38;;;4.10;;
75620;SDS011;64574;48.506;-2.750;2023-05-21T10:09:50;8.40;;;4.28;;
75620;SDS011;64574;48.506;-2.750;2023-05-21T10:12:21;14.45;;;4.88;;
75620;SDS011;64574;48.506;-2.750;2023-05-21T10:14:53;9.73;;;3.60;;
75620;SDS011;64574;48.506;-2.750;2023-05-21T10:17:25;12.45;;;4.30;;
75620;SDS011;64574;48.506;-2.750;2023-05-21T10:22:20;13.80;;;4.20;;
75620;SDS011;64574;48.506;-2.750;2023-05-21T10:24:48;10.70;;;4.78;;
75620;SDS011;64574;48.506;-2.750;2023-05-21T10:27:14;11.55;;;4.45;;
75620;SDS011;64574;48.506;-2.750;2023-05-21T10:29:42;14.40;;;6.68;;
75620;SDS011;64574;48.506;-2.750;2023-05-21T10:32:10;15.60;;;4.78;;
75620;SDS011;64574;48.506;-2.750;2023-05-21T10:34:37;13.27;;;4.75;;
75620;SDS011;64574;48.506;-2.750;2023-05-21T10:37:03;10.05;;;4.50;;
75620;SDS011;64574;48.506;-2.750;2023-05-21T10:39:33;9.73;;;4.57;;
75620;SDS011;64574;48.506;-2.750;2023-05-21T10:44:29;9.15;;;4.35;;
75620;SDS011;64574;48.506;-2.750;2023-05-21T10:49:53;10.25;;;4.28;;
75620;SDS011;64574;48.506;-2.750;2023-05-21T10:55:30;11.45;;;4.57;;
75620;SDS011;64574;48.506;-2.750;2023-05-21T11:01:15;7.45;;;3.78;;
75620;SDS011;64574;48.506;-2.750;2023-05-21T11:03:43;14.10;;;5.40;;
75620;SDS011;64574;48.506;-2.750;2023-05-21T11:06:10;11.75;;;4.63;;
75620;SDS011;64574;48.506;-2.750;2023-05-21T11:08:46;14.57;;;5.65;;
75620;SDS011;64574;48.506;-2.750;2023-05-21T11:11:12;13.18;;;5.70;;
75620;SDS011;64574;48.506;-2.750;2023-05-21T11:16:13;11.35;;;5.13;;
75620;SDS011;64574;48.506;-2.750;2023-05-21T11:23:54;9.75;;;5.40;;
75620;SDS011;64574;48.506;-2.750;2023-05-21T11:26:26;10.40;;;5.40;;
75620;SDS011;64574;48.506;-2.750;2023-05-21T11:31:28;18.95;;;5.95;;
75620;SDS011;64574;48.506;-2.750;2023-05-21T11:36:38;18.05;;;5.07;;
75620;SDS011;64574;48.506;-2.750;2023-05-21T11:41:58;9.32;;;4.72;;
75620;SDS011;64574;48.506;-2.750;2023-05-21T11:44:41;10.68;;;5.30;;
75620;SDS011;64574;48.506;-2.750;2023-05-21T11:47:14;12.40;;;5.78;;
75620;SDS011;64574;48.506;-2.750;2023-05-21T11:49:41;10.15;;;4.95;;
75620;SDS011;64574;48.506;-2.750;2023-05-21T11:52:08;11.38;;;4.43;;
75620;SDS011;64574;48.506;-2.750;2023-05-21T11:54:44;12.90;;;5.53;;
75620;SDS011;64574;48.506;-2.750;2023-05-21T11:57:15;11.23;;;5.03;;
75620;SDS011;64574;48.506;-2.750;2023-05-21T11:59:46;11.63;;;4.95;;
75620;SDS011;64574;48.506;-2.750;2023-05-21T12:02:15;12.00;;;4.80;;
75620;SDS011;64574;48.506;-2.750;2023-05-21T12:04:43;9.25;;;4.65;;
75620;SDS011;64574;48.506;-2.750;2023-05-21T12:07:10;13.02;;;5.70;;
75620;SDS011;64574;48.506;-2.750;2023-05-21T12:09:58;11.48;;;4.90;;
75620;SDS011;64574;48.506;-2.750;2023-05-21T12:12:25;11.82;;;5.05;;
75620;SDS011;64574;48.506;-2.750;2023-05-21T12:14:52;9.82;;;4.80;;
75620;SDS011;64574;48.506;-2.750;2023-05-21T12:17:22;10.52;;;5.25;;
75620;SDS011;64574;48.506;-2.750;2023-05-21T12:19:50;10.77;;;4.35;;
75620;SDS011;64574;48.506;-2.750;2023-05-21T12:22:19;14.68;;;5.93;;
75620;SDS011;64574;48.506;-2.750;2023-05-21T12:24:45;12.98;;;5.18;;
75620;SDS011;64574;48.506;-2.750;2023-05-21T12:29:41;12.55;;;5.60;;
75620;SDS011;64574;48.506;-2.750;2023-05-21T12:32:09;12.68;;;5.18;;
75620;SDS011;64574;48.506;-2.750;2023-05-21T12:37:20;8.73;;;4.57;;
75620;SDS011;64574;48.506;-2.750;2023-05-21T12:39:47;15.45;;;5.75;;
75620;SDS011;64574;48.506;-2.750;2023-05-21T12:42:14;13.77;;;5.53;;
75620;SDS011;64574;48.506;-2.750;2023-05-21T12:44:44;13.30;;;4.90;;
75620;SDS011;64574;48.506;-2.750;2023-05-21T12:47:11;13.40;;;5.57;;
75620;SDS011;64574;48.506;-2.750;2023-05-21T12:49:41;14.18;;;5.88;;
75620;SDS011;64574;48.506;-2.750;2023-05-21T12:52:11;12.85;;;5.18;;
75620;SDS011;64574;48.506;-2.750;2023-05-21T12:54:39;10.07;;;5.45;;
75620;SDS011;64574;48.506;-2.750;2023-05-21T12:57:10;13.07;;;5.30;;
75620;SDS011;64574;48.506;-2.750;2023-05-21T12:59:45;14.18;;;7.00;;
75620;SDS011;64574;48.506;-2.750;2023-05-21T13:02:13;12.23;;;6.22;;
75620;SDS011;64574;48.506;-2.750;2023-05-21T13:04:46;12.07;;;5.30;;
75620;SDS011;64574;48.506;-2.750;2023-05-21T13:07:13;12.63;;;6.22;;
75620;SDS011;64574;48.506;-2.750;2023-05-21T13:09:40;8.57;;;5.28;;
75620;SDS011;64574;48.506;-2.750;2023-05-21T13:12:06;11.35;;;6.00;;
75620;SDS011;64574;48.506;-2.750;2023-05-21T13:14:31;11.82;;;6.18;;
75620;SDS011;64574;48.506;-2.750;2023-05-21T13:16:57;10.48;;;5.47;;
75620;SDS011;64574;48.506;-2.750;2023-05-21T13:19:23;11.27;;;5.55;;
75620;SDS011;64574;48.506;-2.750;2023-05-21T13:21:48;12.88;;;6.18;;
75620;SDS011;64574;48.506;-2.750;2023-05-21T13:24:14;10.57;;;5.13;;
75620;SDS011;64574;48.506;-2.750;2023-05-21T13:26:40;13.52;;;5.53;;
75620;SDS011;64574;48.506;-2.750;2023-05-21T13:29:05;14.50;;;5.93;;
75620;SDS011;64574;48.506;-2.750;2023-05-21T13:31:31;13.13;;;5.88;;
75620;SDS011;64574;48.506;-2.750;2023-05-21T13:33:56;12.18;;;5.95;;
75620;SDS011;64574;48.506;-2.750;2023-05-21T13:36:22;14.32;;;6.68;;
75620;SDS011;64574;48.506;-2.750;2023-05-21T13:38:47;12.25;;;6.15;;
75620;SDS011;64574;48.506;-2.750;2023-05-21T13:41:13;11.80;;;5.55;;
75620;SDS011;64574;48.506;-2.750;2023-05-21T13:43:41;14.77;;;6.85;;
75620;SDS011;64574;48.506;-2.750;2023-05-21T13:46:07;11.13;;;5.57;;
75620;SDS011;64574;48.506;-2.750;2023-05-21T13:48:33;12.35;;;5.88;;
75620;SDS011;64574;48.506;-2.750;2023-05-21T13:50:59;12.48;;;6.53;;
75620;SDS011;64574;48.506;-2.750;2023-05-21T13:53:24;13.35;;;6.10;;
75620;SDS011;64574;48.506;-2.750;2023-05-21T13:55:50;11.93;;;5.43;;
75620;SDS011;64574;48.506;-2.750;2023-05-21T13:58:16;15.88;;;7.70;;
75620;SDS011;64574;48.506;-2.750;2023-05-21T14:00:41;10.50;;;5.32;;
75620;SDS011;64574;48.506;-2.750;2023-05-21T14:03:07;12.68;;;6.15;;
75620;SDS011;64574;48.506;-2.750;2023-05-21T14:05:34;14.13;;;7.45;;
75620;SDS011;64574;48.506;-2.750;2023-05-21T14:08:00;10.63;;;5.85;;
75620;SDS011;64574;48.506;-2.750;2023-05-21T14:10:26;12.32;;;6.57;;
75620;SDS011;64574;48.506;-2.750;2023-05-21T14:12:51;12.75;;;6.20;;
75620;SDS011;64574;48.506;-2.750;2023-05-21T14:15:17;12.73;;;6.05;;
75620;SDS011;64574;48.506;-2.750;2023-05-21T14:17:42;10.07;;;5.60;;
75620;SDS011;64574;48.506;-2.750;2023-05-21T14:20:08;13.18;;;6.10;;
75620;SDS011;64574;48.506;-2.750;2023-05-21T14:22:34;15.77;;;6.88;;
75620;SDS011;64574;48.506;-2.750;2023-05-21T14:25:00;12.65;;;6.40;;
75620;SDS011;64574;48.506;-2.750;2023-05-21T14:27:27;12.43;;;7.07;;
75620;SDS011;64574;48.506;-2.750;2023-05-21T14:29:52;12.45;;;6.80;;
75620;SDS011;64574;48.506;-2.750;2023-05-21T14:32:18;12.45;;;6.03;;
75620;SDS011;64574;48.506;-2.750;2023-05-21T14:34:43;11.18;;;5.25;;
75620;SDS011;64574;48.506;-2.750;2023-05-21T14:37:09;10.88;;;5.65;;
75620;SDS011;64574;48.506;-2.750;2023-05-21T14:39:35;15.02;;;7.15;;
75620;SDS011;64574;48.506;-2.750;2023-05-21T14:42:03;12.98;;;6.32;;
75620;SDS011;64574;48.506;-2.750;2023-05-21T14:44:29;12.48;;;6.97;;
75620;SDS011;64574;48.506;-2.750;2023-05-21T14:46:55;13.50;;;6.95;;
75620;SDS011;64574;48.506;-2.750;2023-05-21T14:49:21;13.70;;;6.75;;
75620;SDS011;64574;48.506;-2.750;2023-05-21T14:51:46;13.52;;;6.55;;
75620;SDS011;64574;48.506;-2.750;2023-05-21T14:54:12;12.85;;;6.13;;
75620;SDS011;64574;48.506;-2.750;2023-05-21T14:56:38;12.07;;;6.43;;
75620;SDS011;64574;48.506;-2.750;2023-05-21T14:59:04;15.00;;;7.13;;
75620;SDS011;64574;48.506;-2.750;2023-05-21T15:01:29;11.25;;;6.57;;
75620;SDS011;64574;48.506;-2.750;2023-05-21T15:03:55;12.13;;;6.28;;
75620;SDS011;64574;48.506;-2.750;2023-05-21T15:06:22;12.93;;;6.53;;
75620;SDS011;64574;48.506;-2.750;2023-05-21T15:08:47;10.77;;;6.18;;